Historyczne dane pomiarowe

Dodano dane terminowe – wersja testowa.

Dane z okresu 1951-2019

Wersja bazy: 1.34 [2019-03-16, lista zmian], aktualizacja planowana na 2019-04-15

Dane meteo z obszaru Polski uzyskane na podstawie danych udostępnionych przez Instytut Meteorologii i Gospodarki Wodnej – Państwowy Instytut Badawczy.

 

Wybierz Datę:    

       

TemperaturaWilgotnośćZachmurzenieWiatrCiśnienieWidzialnośćZjawiska
 Data    tng td wb rh cc ccl cl cm ch dir g1 g2 mslp ppp      
1999-07-27 00:00:00 18.4--- 15.4 16.582wxwx4wx--1017.1 992.9 0.0---wx
1999-07-27 01:00:00 17.0--- 14.6 15.586wxwx3wx--1017.4 993.1----wx
1999-07-27 02:00:00 17.2--- 14.8 15.786wxwxwx4wx--1017.8 993.5----wx
1999-07-27 03:00:00 17.4--- 16.3 16.793wxwxwx4wx--1018.0 993.7----wx
1999-07-27 04:00:00 17.2--- 16.4 16.795wxwxwx4wx--1018.4 994.1----wx
1999-07-27 05:00:00 18.2--- 16.5 17.190wxwxwx5wx--1018.4 994.1----wx
1999-07-27 06:00:00 18.8--- 16.1 17.184wxwxwx5wx--1018.6 994.4 0.0---wx
1999-07-27 07:00:00 18.8--- 16.4 17.386wxwxwxwx6wx--1019.2 995.0----wx
1999-07-27 08:00:00 18.5--- 16.0 16.985wxwxwxwx6wx--1019.8 995.5----wx
1999-07-27 09:00:00 18.6--- 15.9 16.984wxwxwxwx7wx--1019.9 995.6----wx
1999-07-27 10:00:00 20.4--- 15.7 17.474wxwxwx4wx--1019.5 995.4----wx
1999-07-27 11:00:00 21.6--- 15.4 17.768wxwxwxwx5wx--1018.8 994.8----wx
1999-07-27 12:00:00 22.3--- 13.9 17.159wxwxwxwx5wx--1018.6 994.7 0.0---wx
1999-07-27 13:00:00 23.2--- 12.9 16.952wxwxwxwx4wx--1018.4 994.5----wx
1999-07-27 14:00:00 24.1--- 13.5 17.551wxwxwxwx4wx--1018.1 994.3----wx
1999-07-27 15:00:00 23.8--- 12.5 16.949wxwxwxwxwx6wx--1018.3 994.5----wx
1999-07-27 16:00:00 23.7--- 13.3 17.352wxwxwxwxwx5wx--1018.0 994.2----wx
1999-07-27 17:00:00 23.1--- 13.0 16.953wxwxwxwx4wx--1017.9 994.0----wx
1999-07-27 18:00:00 21.5--- 13.2 16.459wxwxwxwx4wx--1018.1 994.1 0.0---wx
1999-07-27 19:00:00 19.0--- 13.2 15.569wxwxwxwx2wx--1018.5 994.3----wx
1999-07-27 20:00:00 19.6--- 13.2 15.766wxwxwx3wx--1018.8 994.6----wx
1999-07-27 21:00:00 19.7--- 12.7 15.564wxwxwx3wx--1019.0 994.8----wx
1999-07-27 22:00:00 18.8--- 13.0 15.369wxwxwx1wx--1019.4 995.2----wx
1999-07-27 23:00:00 17.6--- 12.7 14.773wxwxwx1wx--1019.1 994.8----wx

 

Źródłem pochodzenia danych jest Instytut Meteorologii i Gospodarki Wodnej – Państwowy Instytut Badawczy. Dane Instytutu Meteorologii i Gospodarki Wodnej – Państwowego Instytutu Badawczego zostały przetworzone.

Dane źródłowe można odnaleźć na stronie https://dane.imgw.pl